createdAt,value
2017-06-26T00:00:49.765Z,17.40
2017-06-26T00:03:17.330Z,17.40
2017-06-26T00:05:44.883Z,17.30
2017-06-26T00:08:12.387Z,17.30
2017-06-26T00:10:40.253Z,17.20
2017-06-26T00:13:07.774Z,17.20
2017-06-26T00:15:35.315Z,17.20
2017-06-26T00:18:03.662Z,17.20
2017-06-26T00:20:31.161Z,17.10
2017-06-26T00:22:58.661Z,17.20
2017-06-26T00:25:26.633Z,17.20
2017-06-26T00:27:54.137Z,17.20
2017-06-26T00:30:21.631Z,17.20
2017-06-26T00:32:49.216Z,17.20
2017-06-26T00:35:16.728Z,17.10
2017-06-26T00:37:44.278Z,17.10
2017-06-26T00:40:12.162Z,17.10
2017-06-26T00:42:39.691Z,17.00
2017-06-26T00:45:07.227Z,17.00
2017-06-26T00:47:35.179Z,16.90
2017-06-26T00:50:02.681Z,16.80
2017-06-26T00:52:30.202Z,16.80
2017-06-26T00:54:57.761Z,16.70
2017-06-26T00:57:25.294Z,16.60
2017-06-26T00:59:52.810Z,16.60
2017-06-26T01:02:20.337Z,16.50
2017-06-26T01:04:47.861Z,16.50
2017-06-26T01:07:15.705Z,16.40
2017-06-26T01:09:43.204Z,16.40
2017-06-26T01:12:10.732Z,16.40
2017-06-26T01:14:39.012Z,16.50
2017-06-26T01:17:07.298Z,16.50
2017-06-26T01:19:35.081Z,16.40
2017-06-26T01:22:02.591Z,16.50
2017-06-26T01:24:30.090Z,16.40
2017-06-26T01:26:57.627Z,16.40
2017-06-26T01:29:25.172Z,16.40
2017-06-26T01:31:53.991Z,16.40
2017-06-26T01:34:21.526Z,16.40
2017-06-26T01:36:49.819Z,16.50
2017-06-26T01:39:17.333Z,16.40
2017-06-26T01:41:44.822Z,16.40
2017-06-26T01:44:12.322Z,16.40
2017-06-26T01:46:39.879Z,16.40
2017-06-26T01:49:07.383Z,16.40
2017-06-26T01:51:34.902Z,16.40
2017-06-26T01:54:02.425Z,16.40
2017-06-26T01:56:30.998Z,16.40
2017-06-26T01:58:58.498Z,16.40
2017-06-26T02:01:26.042Z,16.50
2017-06-26T02:03:53.545Z,16.50
2017-06-26T02:06:21.049Z,16.40
2017-06-26T02:08:48.573Z,16.50
2017-06-26T02:11:16.077Z,16.50
2017-06-26T02:13:43.941Z,16.50
2017-06-26T02:16:11.452Z,16.50
2017-06-26T02:18:38.959Z,16.60
2017-06-26T02:21:06.466Z,16.60
2017-06-26T02:23:33.974Z,16.70
2017-06-26T02:26:01.478Z,16.70
2017-06-26T02:28:28.989Z,16.70
2017-06-26T02:30:56.770Z,16.70
2017-06-26T02:33:24.262Z,16.70
2017-06-26T02:35:51.760Z,16.70
2017-06-26T02:38:19.276Z,16.70
2017-06-26T02:40:46.776Z,16.70
2017-06-26T02:43:14.295Z,16.70
2017-06-26T02:45:42.086Z,16.70
2017-06-26T02:48:11.053Z,16.80
2017-06-26T02:50:38.558Z,16.70
2017-06-26T02:53:06.082Z,16.80
2017-06-26T02:55:33.591Z,16.80
2017-06-26T02:58:01.108Z,16.80
2017-06-26T03:00:28.633Z,16.80
2017-06-26T03:02:56.135Z,16.80
2017-06-26T03:05:23.646Z,16.70
2017-06-26T03:07:51.160Z,16.70
2017-06-26T03:10:18.703Z,16.70
2017-06-26T03:12:46.993Z,16.50
2017-06-26T03:15:14.782Z,16.50
2017-06-26T03:17:42.288Z,16.50
2017-06-26T03:20:09.801Z,16.50
2017-06-26T03:22:37.322Z,16.40
2017-06-26T03:25:04.831Z,16.40
2017-06-26T03:27:32.357Z,16.40
2017-06-26T03:29:59.876Z,16.50
2017-06-26T03:32:27.369Z,16.50
2017-06-26T03:34:54.922Z,16.50
2017-06-26T03:37:22.420Z,16.50
2017-06-26T03:39:50.243Z,16.50
2017-06-26T03:42:17.742Z,16.60
2017-06-26T03:44:45.236Z,16.60
2017-06-26T03:47:12.744Z,16.60
2017-06-26T03:49:40.249Z,16.60
2017-06-26T03:52:07.762Z,16.70
2017-06-26T03:54:35.261Z,16.60
2017-06-26T03:57:02.774Z,16.70
2017-06-26T03:59:30.290Z,16.70
2017-06-26T04:01:58.978Z,16.60
2017-06-26T04:04:26.490Z,16.60
2017-06-26T04:06:53.989Z,16.60
2017-06-26T04:09:21.497Z,16.60
2017-06-26T04:11:49.007Z,16.60
2017-06-26T04:14:17.305Z,16.60
2017-06-26T04:16:45.152Z,16.60
2017-06-26T04:19:13.444Z,16.70
2017-06-26T04:21:40.969Z,16.70
2017-06-26T04:24:08.762Z,16.70
2017-06-26T04:26:36.263Z,16.80
2017-06-26T04:29:03.768Z,16.80
2017-06-26T04:31:31.295Z,16.90
2017-06-26T04:33:58.824Z,17.00
2017-06-26T04:36:26.338Z,17.10
2017-06-26T04:38:53.856Z,17.10
2017-06-26T04:41:21.374Z,17.10
2017-06-26T04:43:49.636Z,17.10
2017-06-26T04:46:17.937Z,17.10
2017-06-26T04:48:45.498Z,17.10
2017-06-26T04:51:12.998Z,17.00
2017-06-26T04:53:40.510Z,17.00
2017-06-26T04:56:08.026Z,17.00
2017-06-26T04:58:35.542Z,17.00
2017-06-26T05:01:03.037Z,17.00
2017-06-26T05:03:30.583Z,17.00
2017-06-26T05:05:58.098Z,17.10
2017-06-26T05:08:25.606Z,17.30
2017-06-26T05:10:53.530Z,17.30
2017-06-26T05:13:21.022Z,17.20
2017-06-26T05:15:48.518Z,17.30
2017-06-26T05:18:16.040Z,17.70
2017-06-26T05:20:43.559Z,18.10
2017-06-26T05:23:11.341Z,18.60
2017-06-26T05:25:38.846Z,19.00
2017-06-26T05:28:06.365Z,19.40
2017-06-26T05:30:33.887Z,19.50
2017-06-26T05:33:01.397Z,19.80
2017-06-26T05:35:28.914Z,20.00
2017-06-26T05:37:56.441Z,20.00
2017-06-26T05:40:23.949Z,20.10
2017-06-26T05:42:51.471Z,20.30
2017-06-26T05:45:18.991Z,20.60
2017-06-26T05:47:46.540Z,20.80
2017-06-26T05:50:14.050Z,21.10
2017-06-26T05:52:41.576Z,21.70
2017-06-26T05:55:09.073Z,21.80
2017-06-26T05:57:36.838Z,21.80
2017-06-26T06:00:04.324Z,21.90
2017-06-26T06:02:31.820Z,21.90
2017-06-26T06:04:59.332Z,22.40
2017-06-26T06:07:26.834Z,22.90
2017-06-26T06:09:54.353Z,22.90
2017-06-26T06:12:21.875Z,22.40
2017-06-26T06:14:49.374Z,22.80
2017-06-26T06:17:16.882Z,23.30
2017-06-26T06:19:44.416Z,23.10
2017-06-26T06:22:11.931Z,22.30
2017-06-26T06:24:39.440Z,21.20
2017-06-26T06:27:06.962Z,20.60
2017-06-26T06:29:34.478Z,20.30
2017-06-26T06:32:01.988Z,20.70
2017-06-26T06:34:29.512Z,21.00
2017-06-26T06:36:57.024Z,21.60
2017-06-26T06:39:24.807Z,21.90
2017-06-26T06:41:52.326Z,22.50
2017-06-26T06:44:19.831Z,23.30
2017-06-26T06:46:49.462Z,23.40
2017-06-26T06:49:17.948Z,22.30
2017-06-26T06:51:45.481Z,22.30
2017-06-26T06:54:12.997Z,22.60
2017-06-26T06:56:40.792Z,23.20
2017-06-26T06:59:08.299Z,23.80
2017-06-26T07:01:35.822Z,24.00
2017-06-26T07:04:04.114Z,24.20
2017-06-26T07:06:32.396Z,23.60
2017-06-26T07:08:59.921Z,23.50
2017-06-26T07:11:27.474Z,23.60
2017-06-26T07:13:55.009Z,23.90
2017-06-26T07:16:22.841Z,23.80
2017-06-26T07:18:50.402Z,23.70
2017-06-26T07:21:17.908Z,23.40
2017-06-26T07:23:45.432Z,23.70
2017-06-26T07:26:12.950Z,23.40
2017-06-26T07:28:40.967Z,23.90
2017-06-26T07:31:08.490Z,24.70
2017-06-26T07:33:36.019Z,25.60
2017-06-26T07:36:03.909Z,25.90
2017-06-26T07:38:32.183Z,26.70
2017-06-26T07:41:00.468Z,26.70
2017-06-26T07:43:28.777Z,26.50
2017-06-26T07:45:56.315Z,26.50
2017-06-26T07:48:24.414Z,26.10
2017-06-26T07:50:52.234Z,25.00
2017-06-26T07:53:19.742Z,23.70
2017-06-26T07:55:47.265Z,22.80
2017-06-26T07:58:14.929Z,22.90
2017-06-26T08:00:42.452Z,23.50
2017-06-26T08:03:10.323Z,24.20
2017-06-26T08:05:38.117Z,24.20
2017-06-26T08:08:05.995Z,23.90
2017-06-26T08:10:33.649Z,23.80
2017-06-26T08:13:01.353Z,24.10
2017-06-26T08:15:29.185Z,24.90
2017-06-26T08:17:56.859Z,25.80
2017-06-26T08:20:24.380Z,25.60
2017-06-26T08:22:52.716Z,25.10
2017-06-26T08:25:20.211Z,24.70
2017-06-26T08:27:47.734Z,24.40
2017-06-26T08:30:15.545Z,24.20
2017-06-26T08:32:43.826Z,24.10
2017-06-26T08:35:12.105Z,24.40
2017-06-26T08:37:40.832Z,24.30
2017-06-26T08:40:08.333Z,24.30
2017-06-26T08:42:35.847Z,23.80
2017-06-26T08:45:03.763Z,23.80
2017-06-26T08:47:32.054Z,23.70
2017-06-26T08:49:59.574Z,23.70
2017-06-26T08:52:27.594Z,23.50
2017-06-26T08:54:55.108Z,23.50
2017-06-26T08:57:22.630Z,23.50
2017-06-26T08:59:50.458Z,23.90
2017-06-26T09:02:17.977Z,24.20
2017-06-26T09:04:45.482Z,24.40
2017-06-26T09:07:13.015Z,24.00
2017-06-26T09:09:41.164Z,23.90
2017-06-26T09:12:08.685Z,24.20
2017-06-26T09:14:36.178Z,24.10
2017-06-26T09:17:03.699Z,24.30
2017-06-26T09:19:31.218Z,24.40
2017-06-26T09:21:58.997Z,24.40
2017-06-26T09:24:26.549Z,24.60
2017-06-26T09:26:55.137Z,24.40
2017-06-26T09:29:22.688Z,24.30
2017-06-26T09:31:50.271Z,24.40
2017-06-26T09:34:17.884Z,24.70
2017-06-26T09:36:45.392Z,24.90
2017-06-26T09:39:13.245Z,24.50
2017-06-26T09:41:40.755Z,24.00
2017-06-26T09:44:08.378Z,24.00
2017-06-26T09:46:35.979Z,24.00
2017-06-26T09:49:03.506Z,24.00
2017-06-26T09:51:31.351Z,23.80
2017-06-26T09:53:58.894Z,23.90
2017-06-26T09:56:26.447Z,24.00
2017-06-26T09:58:54.070Z,24.10
2017-06-26T10:01:21.600Z,24.20
2017-06-26T10:03:49.437Z,24.30
2017-06-26T10:06:16.955Z,24.50
2017-06-26T10:08:44.467Z,24.70
2017-06-26T10:11:12.353Z,24.70
2017-06-26T10:13:39.853Z,24.80
2017-06-26T10:16:07.369Z,24.90
2017-06-26T10:18:34.904Z,25.10
2017-06-26T10:21:02.420Z,25.30
2017-06-26T10:23:30.249Z,25.20
2017-06-26T10:25:58.545Z,25.10
2017-06-26T10:28:26.070Z,25.10
2017-06-26T10:30:53.600Z,25.00
2017-06-26T10:33:21.108Z,24.90
2017-06-26T10:35:48.921Z,24.60
2017-06-26T10:38:16.433Z,24.70
2017-06-26T10:40:43.947Z,24.90
2017-06-26T10:43:11.488Z,24.90
2017-06-26T10:45:38.995Z,24.70
2017-06-26T10:48:06.514Z,24.70
2017-06-26T10:50:34.048Z,24.70
2017-06-26T10:53:01.839Z,25.00
2017-06-26T10:55:29.364Z,25.10
2017-06-26T10:57:56.877Z,25.20
2017-06-26T11:00:25.180Z,25.60
2017-06-26T11:02:52.711Z,25.60
2017-06-26T11:05:20.530Z,25.80
2017-06-26T11:07:48.058Z,25.80
2017-06-26T11:10:17.760Z,25.90
2017-06-26T11:12:45.287Z,26.10
2017-06-26T11:15:12.802Z,26.10
2017-06-26T11:17:40.656Z,26.10
2017-06-26T11:20:08.188Z,26.10
2017-06-26T11:22:35.775Z,26.00
2017-06-26T11:25:04.540Z,26.10
2017-06-26T11:27:32.376Z,26.10
2017-06-26T11:30:00.132Z,26.20
2017-06-26T11:32:28.315Z,26.30
2017-06-26T11:34:56.005Z,26.10
2017-06-26T11:37:23.660Z,26.00
2017-06-26T11:39:51.464Z,26.10
2017-06-26T11:42:19.359Z,26.20
2017-06-26T11:44:47.034Z,26.50
2017-06-26T11:47:14.696Z,26.60
2017-06-26T11:49:42.304Z,26.60
2017-06-26T11:52:09.980Z,26.90
2017-06-26T11:54:38.429Z,27.30
2017-06-26T11:57:06.352Z,27.50
2017-06-26T11:59:33.890Z,27.60
2017-06-26T12:02:01.406Z,27.10
2017-06-26T12:04:28.912Z,27.10
2017-06-26T12:06:56.427Z,27.10
2017-06-26T12:09:23.950Z,27.10
2017-06-26T12:11:58.028Z,27.20
2017-06-26T12:14:25.549Z,27.40
2017-06-26T12:16:53.081Z,27.60
2017-06-26T12:19:20.621Z,27.70
2017-06-26T12:21:48.127Z,27.80
2017-06-26T12:24:16.157Z,27.90
2017-06-26T12:26:43.704Z,28.10
2017-06-26T12:29:11.216Z,27.60
2017-06-26T12:31:38.746Z,27.70
2017-06-26T12:34:06.534Z,28.00
2017-06-26T12:36:34.058Z,28.50
2017-06-26T12:39:01.563Z,28.60
2017-06-26T12:41:29.358Z,28.80
2017-06-26T12:43:56.875Z,29.00
2017-06-26T12:46:24.398Z,29.50
2017-06-26T12:48:51.924Z,30.10
2017-06-26T12:51:19.422Z,30.40
2017-06-26T12:53:47.201Z,30.40
2017-06-26T12:56:14.809Z,30.80
2017-06-26T12:58:42.321Z,31.40
2017-06-26T13:01:10.213Z,31.30
2017-06-26T13:03:37.763Z,31.30
2017-06-26T13:06:05.289Z,31.30
2017-06-26T13:08:32.824Z,30.80
2017-06-26T13:11:00.321Z,31.30
2017-06-26T13:13:28.332Z,31.60
2017-06-26T13:15:55.858Z,32.40
2017-06-26T13:18:23.382Z,33.30
2017-06-26T13:20:51.317Z,33.70
2017-06-26T13:23:19.670Z,33.70
2017-06-26T13:25:47.198Z,33.70
2017-06-26T13:28:14.746Z,32.40
2017-06-26T13:30:42.259Z,32.00
2017-06-26T13:33:09.787Z,32.30
2017-06-26T13:35:37.294Z,33.40
2017-06-26T13:38:04.867Z,33.70
2017-06-26T13:40:32.479Z,33.70
2017-06-26T13:43:00.302Z,32.30
2017-06-26T13:45:27.868Z,32.30
2017-06-26T13:47:55.416Z,32.30
2017-06-26T13:50:22.953Z,32.50
2017-06-26T13:52:50.477Z,33.00
2017-06-26T13:55:18.005Z,32.00
2017-06-26T13:57:45.555Z,31.10
2017-06-26T14:00:13.098Z,31.20
2017-06-26T14:02:40.645Z,30.20
2017-06-26T14:05:08.176Z,30.50
2017-06-26T14:07:35.976Z,31.60
2017-06-26T14:10:03.500Z,32.30
2017-06-26T14:12:31.010Z,32.70
2017-06-26T14:14:58.535Z,32.80
2017-06-26T14:17:26.057Z,33.60
2017-06-26T14:19:53.596Z,33.30
2017-06-26T14:22:21.390Z,33.00
2017-06-26T14:24:48.979Z,33.20
2017-06-26T14:27:16.582Z,33.30
2017-06-26T14:29:44.106Z,33.90
2017-06-26T14:32:11.713Z,34.90
2017-06-26T14:34:39.237Z,35.90
2017-06-26T14:37:07.040Z,35.20
2017-06-26T14:39:34.573Z,35.30
2017-06-26T14:42:02.101Z,34.70
2017-06-26T14:44:29.668Z,33.90
2017-06-26T14:46:57.500Z,33.20
2017-06-26T14:49:25.109Z,32.40
2017-06-26T14:51:52.658Z,33.20
2017-06-26T14:54:20.470Z,34.10
2017-06-26T14:56:47.988Z,33.50
2017-06-26T14:59:15.497Z,34.20
2017-06-26T15:01:43.034Z,34.20
2017-06-26T15:04:10.569Z,32.50
2017-06-26T15:06:38.380Z,30.80
2017-06-26T15:09:05.886Z,29.70
2017-06-26T15:11:33.473Z,29.70
2017-06-26T15:14:01.267Z,30.20
2017-06-26T15:16:28.787Z,30.80
2017-06-26T15:18:56.310Z,31.00
2017-06-26T15:21:24.097Z,31.30
2017-06-26T15:23:51.610Z,31.00
2017-06-26T15:26:19.118Z,30.50
2017-06-26T15:28:46.912Z,30.40
2017-06-26T15:31:14.444Z,30.00
2017-06-26T15:33:41.954Z,30.00
2017-06-26T15:36:09.727Z,30.40
2017-06-26T15:38:37.227Z,30.40
2017-06-26T15:41:04.753Z,30.10
2017-06-26T15:43:32.545Z,29.70
2017-06-26T15:46:00.093Z,30.30
2017-06-26T15:48:27.613Z,30.70
2017-06-26T15:50:55.422Z,30.90
2017-06-26T15:53:22.947Z,31.10
2017-06-26T15:55:50.473Z,30.80
2017-06-26T15:58:18.278Z,30.90
2017-06-26T16:00:45.846Z,31.20
2017-06-26T16:03:13.379Z,30.70
2017-06-26T16:05:40.894Z,30.50
2017-06-26T16:08:08.438Z,30.30
2017-06-26T16:10:35.975Z,30.00
2017-06-26T16:13:03.769Z,30.20
2017-06-26T16:15:31.305Z,30.30
2017-06-26T16:17:58.827Z,30.50
2017-06-26T16:20:26.788Z,30.80
2017-06-26T16:22:54.318Z,31.00
2017-06-26T16:25:21.837Z,31.30
2017-06-26T16:27:50.159Z,30.00
2017-06-26T16:30:17.673Z,30.00
2017-06-26T16:32:45.186Z,30.10
2017-06-26T16:35:12.709Z,29.80
2017-06-26T16:37:40.214Z,29.90
2017-06-26T16:40:07.757Z,29.80
2017-06-26T16:42:35.299Z,29.70
2017-06-26T16:45:02.815Z,29.20
2017-06-26T16:47:30.340Z,28.80
2017-06-26T16:49:57.871Z,27.90
2017-06-26T16:52:25.406Z,27.40
2017-06-26T16:54:52.927Z,26.90
2017-06-26T16:57:20.744Z,27.00
2017-06-26T16:59:48.248Z,27.00
2017-06-26T17:02:15.773Z,26.80
2017-06-26T17:04:43.307Z,26.20
2017-06-26T17:07:10.833Z,25.90
2017-06-26T17:09:38.365Z,25.40
2017-06-26T17:12:05.908Z,25.00
2017-06-26T17:14:33.430Z,24.70
2017-06-26T17:17:01.007Z,24.60
2017-06-26T17:19:28.518Z,24.60
2017-06-26T17:21:56.053Z,24.70
2017-06-26T17:24:23.568Z,24.90
2017-06-26T17:26:51.100Z,25.10
2017-06-26T17:29:18.637Z,25.20
2017-06-26T17:31:46.177Z,25.30
2017-06-26T17:34:13.710Z,25.10
2017-06-26T17:36:41.999Z,24.40
2017-06-26T17:39:10.565Z,24.00
2017-06-26T17:41:38.091Z,24.00
2017-06-26T17:44:05.616Z,23.90
2017-06-26T17:46:33.143Z,23.70
2017-06-26T17:49:00.667Z,23.50
2017-06-26T17:51:28.223Z,23.50
2017-06-26T17:53:55.766Z,23.50
2017-06-26T17:56:23.298Z,23.40
2017-06-26T17:58:50.827Z,23.30
2017-06-26T18:01:18.358Z,23.30
2017-06-26T18:03:45.876Z,23.10
2017-06-26T18:06:13.374Z,23.00
2017-06-26T18:08:40.901Z,22.90
2017-06-26T18:11:08.470Z,22.90
2017-06-26T18:13:35.978Z,22.80
2017-06-26T18:16:03.508Z,22.70
2017-06-26T18:18:31.032Z,22.60
2017-06-26T18:20:58.576Z,22.40
2017-06-26T18:23:26.441Z,22.30
2017-06-26T18:25:54.001Z,22.20
2017-06-26T18:28:21.526Z,22.10
2017-06-26T18:30:49.116Z,21.90
2017-06-26T18:33:16.660Z,21.70
2017-06-26T18:35:44.174Z,21.60
2017-06-26T18:38:12.005Z,21.50
2017-06-26T18:40:39.527Z,21.40
2017-06-26T18:43:07.039Z,21.30
2017-06-26T18:45:34.592Z,21.20
2017-06-26T18:48:02.105Z,21.10
2017-06-26T18:50:29.646Z,21.00
2017-06-26T18:52:57.237Z,20.90
2017-06-26T18:55:25.172Z,20.90
2017-06-26T18:57:52.713Z,20.80
2017-06-26T19:00:20.277Z,20.90
2017-06-26T19:02:48.088Z,20.80
2017-06-26T19:05:15.673Z,20.80
2017-06-26T19:07:43.207Z,20.70
2017-06-26T19:10:11.016Z,20.60
2017-06-26T19:12:38.538Z,20.50
2017-06-26T19:15:06.078Z,20.50
2017-06-26T19:17:33.640Z,20.40
2017-06-26T19:20:01.159Z,20.30
2017-06-26T19:22:28.710Z,20.20
2017-06-26T19:24:56.258Z,20.20
2017-06-26T19:27:23.794Z,20.10
2017-06-26T19:29:52.107Z,20.00
2017-06-26T19:32:19.665Z,20.00
2017-06-26T19:34:47.187Z,19.90
2017-06-26T19:37:15.509Z,19.80
2017-06-26T19:39:43.047Z,19.80
2017-06-26T19:42:10.602Z,19.80
2017-06-26T19:44:38.145Z,19.70
2017-06-26T19:47:05.666Z,19.60
2017-06-26T19:49:33.467Z,19.60
2017-06-26T19:52:00.993Z,19.60
2017-06-26T19:54:28.524Z,19.50
2017-06-26T19:56:56.564Z,19.40
2017-06-26T19:59:24.101Z,19.30
2017-06-26T20:01:51.652Z,19.30
2017-06-26T20:04:19.192Z,19.30
2017-06-26T20:06:46.706Z,19.20
2017-06-26T20:09:14.606Z,19.10
2017-06-26T20:11:42.148Z,19.10
2017-06-26T20:14:09.699Z,19.10
2017-06-26T20:16:37.242Z,19.00
2017-06-26T20:19:04.783Z,19.00
2017-06-26T20:21:32.330Z,19.00
2017-06-26T20:23:59.872Z,18.90
2017-06-26T20:26:27.417Z,18.90
2017-06-26T20:28:54.930Z,18.90
2017-06-26T20:31:23.223Z,18.80
2017-06-26T20:33:50.743Z,18.80
2017-06-26T20:36:18.779Z,18.70
2017-06-26T20:38:46.393Z,18.70
2017-06-26T20:41:14.713Z,18.50
2017-06-26T20:43:42.278Z,18.50
2017-06-26T20:46:09.809Z,18.40
2017-06-26T20:48:37.340Z,18.40
2017-06-26T20:51:04.863Z,18.40
2017-06-26T20:53:32.401Z,18.30
2017-06-26T20:55:59.917Z,18.30
2017-06-26T20:58:27.473Z,18.30
2017-06-26T21:00:55.016Z,18.30
2017-06-26T21:03:22.561Z,18.30
2017-06-26T21:05:50.304Z,18.30
2017-06-26T21:08:17.844Z,18.20
2017-06-26T21:10:46.940Z,18.20
2017-06-26T21:13:14.501Z,18.10
2017-06-26T21:15:42.221Z,18.10
2017-06-26T21:18:10.464Z,18.10
2017-06-26T21:20:38.001Z,18.00
2017-06-26T21:23:05.548Z,17.90
2017-06-26T21:25:33.106Z,17.80
2017-06-26T21:28:00.632Z,17.70
2017-06-26T21:30:28.184Z,17.70
2017-06-26T21:32:55.712Z,17.70
2017-06-26T21:35:23.263Z,17.70
2017-06-26T21:37:50.796Z,17.60
2017-06-26T21:40:18.333Z,17.60
2017-06-26T21:42:45.875Z,17.70
2017-06-26T21:45:13.819Z,17.70
2017-06-26T21:47:41.332Z,17.70
2017-06-26T21:50:08.861Z,17.80
2017-06-26T21:52:36.392Z,17.80
2017-06-26T21:55:03.902Z,17.70
2017-06-26T21:57:31.439Z,17.80
2017-06-26T21:59:59.264Z,17.70
2017-06-26T22:02:26.798Z,17.70
2017-06-26T22:04:54.325Z,17.60
2017-06-26T22:07:21.861Z,17.50
2017-06-26T22:09:49.403Z,17.40
2017-06-26T22:12:16.931Z,17.40
2017-06-26T22:14:44.464Z,17.30
2017-06-26T22:17:11.980Z,17.30
2017-06-26T22:19:39.509Z,17.30
2017-06-26T22:22:07.040Z,17.30
2017-06-26T22:24:34.565Z,17.30
2017-06-26T22:27:02.094Z,17.30
2017-06-26T22:29:29.594Z,17.20
2017-06-26T22:31:57.515Z,17.20
2017-06-26T22:34:25.806Z,17.00
2017-06-26T22:36:53.313Z,16.90
2017-06-26T22:39:20.861Z,16.90
2017-06-26T22:41:48.427Z,16.70
2017-06-26T22:44:15.960Z,16.60
2017-06-26T22:46:43.482Z,16.50
2017-06-26T22:49:11.774Z,16.50
2017-06-26T22:51:39.310Z,16.40
2017-06-26T22:54:06.835Z,16.40
2017-06-26T22:56:34.752Z,16.40
2017-06-26T22:59:02.278Z,16.40
2017-06-26T23:01:29.781Z,16.30
2017-06-26T23:03:57.306Z,16.20
2017-06-26T23:06:24.811Z,16.20
2017-06-26T23:08:52.661Z,16.30
2017-06-26T23:11:20.162Z,16.30
2017-06-26T23:13:47.678Z,16.30
2017-06-26T23:16:15.249Z,16.30
2017-06-26T23:18:42.767Z,16.30
2017-06-26T23:21:10.301Z,16.30
2017-06-26T23:23:37.827Z,16.30
2017-06-26T23:26:05.366Z,16.30
2017-06-26T23:28:32.893Z,16.30
2017-06-26T23:31:00.408Z,16.30
2017-06-26T23:33:27.933Z,16.30
2017-06-26T23:35:55.479Z,16.30
2017-06-26T23:38:23.752Z,16.40
2017-06-26T23:40:51.290Z,16.30
2017-06-26T23:43:18.812Z,16.40
2017-06-26T23:45:46.349Z,16.40
2017-06-26T23:48:14.626Z,16.30
2017-06-26T23:50:42.132Z,16.30
2017-06-26T23:53:09.640Z,16.40
2017-06-26T23:55:37.163Z,16.40
2017-06-26T23:58:04.675Z,16.40
